sensor_id;sensor_type;location;lat;lon;timestamp;pressure;altitude;pressure_sealevel;temperature;humidity
44920;BME280;30655;53.094;6.072;2022-09-14T00:01:47;100943.50;;;14.34;81.72
44920;BME280;30655;53.094;6.072;2022-09-14T00:04:22;100996.91;;;14.73;81.75
44920;BME280;30655;53.094;6.072;2022-09-14T00:07:03;100878.88;;;14.02;81.64
44920;BME280;30655;53.094;6.072;2022-09-14T00:09:33;100990.13;;;14.70;82.08
44920;BME280;30655;53.094;6.072;2022-09-14T00:12:00;100882.25;;;13.94;81.90
44920;BME280;30655;53.094;6.072;2022-09-14T01:30:27;100917.78;;;14.69;83.35
44920;BME280;30655;53.094;6.072;2022-09-14T01:33:23;100933.38;;;14.82;83.34
44920;BME280;30655;53.094;6.072;2022-09-14T01:36:03;100945.56;;;14.85;83.22
44920;BME280;30655;53.094;6.072;2022-09-14T01:38:50;100946.38;;;14.85;83.31
44920;BME280;30655;53.094;6.072;2022-09-14T01:41:45;100927.66;;;14.84;83.28
44920;BME280;30655;53.094;6.072;2022-09-14T01:44:47;100943.16;;;14.83;83.57
44920;BME280;30655;53.094;6.072;2022-09-14T01:47:53;100937.19;;;14.81;83.72
44920;BME280;30655;53.094;6.072;2022-09-14T01:50:27;100935.81;;;14.84;83.64
44920;BME280;30655;53.094;6.072;2022-09-14T01:53:10;100865.31;;;14.45;83.41
44920;BME280;30655;53.094;6.072;2022-09-14T01:59:04;100762.06;;;13.78;83.37
44920;BME280;30655;53.094;6.072;2022-09-14T02:02:06;100890.88;;;14.68;83.46
44920;BME280;30655;53.094;6.072;2022-09-14T02:04:51;100921.97;;;14.99;83.45
44920;BME280;30655;53.094;6.072;2022-09-14T02:07:23;100918.53;;;14.93;83.92
44920;BME280;30655;53.094;6.072;2022-09-14T02:10:21;100921.66;;;15.00;83.21
44920;BME280;30655;53.094;6.072;2022-09-14T02:13:25;100869.22;;;14.76;83.05
44920;BME280;30655;53.094;6.072;2022-09-14T02:16:00;100908.78;;;15.06;83.17
44920;BME280;30655;53.094;6.072;2022-09-14T02:19:01;100864.75;;;14.85;83.29
44920;BME280;30655;53.094;6.072;2022-09-14T02:22:16;100833.00;;;14.62;83.46
44920;BME280;30655;53.094;6.072;2022-09-14T02:24:54;100917.69;;;15.12;83.51
44920;BME280;30655;53.094;6.072;2022-09-14T02:28:12;100723.47;;;14.00;83.48
44920;BME280;30655;53.094;6.072;2022-09-14T02:31:49;100830.41;;;14.71;83.65
44920;BME280;30655;53.094;6.072;2022-09-14T02:41:02;100819.13;;;14.63;84.09
44920;BME280;30655;53.094;6.072;2022-09-14T02:47:20;100897.94;;;15.20;84.56
44920;BME280;30655;53.094;6.072;2022-09-14T02:50:31;100895.47;;;15.23;84.55
44920;BME280;30655;53.094;6.072;2022-09-14T02:53:29;100902.22;;;15.26;84.58
44920;BME280;30655;53.094;6.072;2022-09-14T02:56:38;100888.03;;;15.29;84.41
44920;BME280;30655;53.094;6.072;2022-09-14T02:59:25;100743.47;;;14.47;84.45
44920;BME280;30655;53.094;6.072;2022-09-14T03:02:06;100716.16;;;14.38;84.25
44920;BME280;30655;53.094;6.072;2022-09-14T03:07:55;100770.91;;;14.83;84.25
44920;BME280;30655;53.094;6.072;2022-09-14T03:10:31;100860.91;;;15.37;84.53
44920;BME280;30655;53.094;6.072;2022-09-14T03:20:00;100864.53;;;15.33;84.67
44920;BME280;30655;53.094;6.072;2022-09-14T03:22:39;100767.47;;;14.77;84.72
44920;BME280;30655;53.094;6.072;2022-09-14T03:25:24;100849.28;;;15.32;85.06
44920;BME280;30655;53.094;6.072;2022-09-14T03:28:04;100835.84;;;15.22;85.15
44920;BME280;30655;53.094;6.072;2022-09-14T03:30:51;100737.72;;;14.67;85.07
44920;BME280;30655;53.094;6.072;2022-09-14T03:33:35;100755.03;;;14.71;85.19
44920;BME280;30655;53.094;6.072;2022-09-14T03:36:30;100745.19;;;14.75;85.33
44920;BME280;30655;53.094;6.072;2022-09-14T03:39:05;100850.81;;;15.38;85.69
44920;BME280;30655;53.094;6.072;2022-09-14T03:41:37;100856.75;;;15.40;85.79
44920;BME280;30655;53.094;6.072;2022-09-14T03:44:44;100845.06;;;15.39;85.87
44920;BME280;30655;53.094;6.072;2022-09-14T03:47:44;100841.22;;;15.40;85.98
44920;BME280;30655;53.094;6.072;2022-09-14T04:04:36;100724.13;;;14.81;86.15
44920;BME280;30655;53.094;6.072;2022-09-14T04:07:40;100830.25;;;15.45;86.16
44920;BME280;30655;53.094;6.072;2022-09-14T04:10:30;100750.72;;;15.02;86.20
44920;BME280;30655;53.094;6.072;2022-09-14T04:13:06;100825.03;;;15.49;86.29
44920;BME280;30655;53.094;6.072;2022-09-14T04:15:40;100790.47;;;15.31;86.47
44920;BME280;30655;53.094;6.072;2022-09-14T04:18:32;100808.91;;;15.53;86.32
44920;BME280;30655;53.094;6.072;2022-09-14T04:21:20;100729.31;;;15.09;86.36
44920;BME280;30655;53.094;6.072;2022-09-14T04:24:00;100776.09;;;15.44;86.14
44920;BME280;30655;53.094;6.072;2022-09-14T04:26:57;100798.41;;;15.60;86.56
44920;BME280;30655;53.094;6.072;2022-09-14T04:29:35;100816.38;;;15.61;86.58
44920;BME280;30655;53.094;6.072;2022-09-14T04:32:18;100758.09;;;15.29;86.57
44920;BME280;30655;53.094;6.072;2022-09-14T04:34:48;100752.53;;;15.21;86.61
44920;BME280;30655;53.094;6.072;2022-09-14T04:37:26;100769.94;;;15.38;86.76
44920;BME280;30655;53.094;6.072;2022-09-14T04:40:37;100659.19;;;14.60;86.36
44920;BME280;30655;53.094;6.072;2022-09-14T04:43:25;100678.50;;;14.78;86.57
44920;BME280;30655;53.094;6.072;2022-09-14T04:46:19;100802.94;;;15.64;86.78
44920;BME280;30655;53.094;6.072;2022-09-14T04:49:29;100744.19;;;15.31;86.47
44920;BME280;30655;53.094;6.072;2022-09-14T04:52:12;100788.63;;;15.59;86.49
44920;BME280;30655;53.094;6.072;2022-09-14T04:55:12;100636.13;;;14.58;86.43
44920;BME280;30655;53.094;6.072;2022-09-14T05:01:54;100618.56;;;14.50;86.17
44920;BME280;30655;53.094;6.072;2022-09-14T05:19:19;100789.41;;;15.59;86.83
44920;BME280;30655;53.094;6.072;2022-09-14T05:22:05;100797.41;;;15.69;87.11
44920;BME280;30655;53.094;6.072;2022-09-14T05:25:22;100630.69;;;14.58;87.05
44920;BME280;30655;53.094;6.072;2022-09-14T05:28:23;100736.22;;;15.34;86.84
44920;BME280;30655;53.094;6.072;2022-09-14T05:31:06;100741.69;;;15.48;87.02
44920;BME280;30655;53.094;6.072;2022-09-14T05:34:14;100785.09;;;15.72;86.90
44920;BME280;30655;53.094;6.072;2022-09-14T05:37:04;100641.78;;;14.75;86.86
44920;BME280;30655;53.094;6.072;2022-09-14T05:39:52;100790.44;;;15.77;86.95
44920;BME280;30655;53.094;6.072;2022-09-14T05:42:24;100707.06;;;15.21;87.16
44920;BME280;30655;53.094;6.072;2022-09-14T05:45:32;100733.50;;;15.48;86.99
44920;BME280;30655;53.094;6.072;2022-09-14T05:48:10;100782.97;;;15.82;87.02
44920;BME280;30655;53.094;6.072;2022-09-14T05:51:09;100775.63;;;15.83;86.79
44920;BME280;30655;53.094;6.072;2022-09-14T05:54:11;100607.38;;;14.84;86.80
44920;BME280;30655;53.094;6.072;2022-09-14T05:56:47;100765.91;;;15.90;86.93
44920;BME280;30655;53.094;6.072;2022-09-14T05:59:20;100766.91;;;15.94;86.71
44920;BME280;30655;53.094;6.072;2022-09-14T06:02:25;100765.78;;;15.96;86.49
44920;BME280;30655;53.094;6.072;2022-09-14T06:05:11;100777.41;;;16.01;86.43
44920;BME280;30655;53.094;6.072;2022-09-14T06:08:00;100589.72;;;14.82;86.29
44920;BME280;30655;53.094;6.072;2022-09-14T06:13:46;100764.66;;;16.10;86.36
44920;BME280;30655;53.094;6.072;2022-09-14T06:16:51;100763.53;;;16.11;86.31
44920;BME280;30655;53.094;6.072;2022-09-14T06:19:24;100772.13;;;16.18;86.32
44920;BME280;30655;53.094;6.072;2022-09-14T06:22:33;100748.28;;;16.10;86.05
44920;BME280;30655;53.094;6.072;2022-09-14T06:25:23;100773.94;;;16.23;85.88
44920;BME280;30655;53.094;6.072;2022-09-14T06:28:14;100672.50;;;15.63;85.79
44920;BME280;30655;53.094;6.072;2022-09-14T06:31:07;100683.75;;;15.70;85.98
44920;BME280;30655;53.094;6.072;2022-09-14T06:33:58;100780.75;;;16.34;85.92
44920;BME280;30655;53.094;6.072;2022-09-14T06:36:42;100765.63;;;16.28;86.26
44920;BME280;30655;53.094;6.072;2022-09-14T06:39:33;100787.13;;;16.43;86.18
44920;BME280;30655;53.094;6.072;2022-09-14T06:45:38;100792.13;;;16.50;85.69
44920;BME280;30655;53.094;6.072;2022-09-14T06:48:25;100791.81;;;16.51;85.46
44920;BME280;30655;53.094;6.072;2022-09-14T07:00:48;100641.66;;;15.76;85.17
44920;BME280;30655;53.094;6.072;2022-09-14T07:03:30;100796.59;;;16.82;85.23
44920;BME280;30655;53.094;6.072;2022-09-14T07:06:09;100647.28;;;15.93;84.85
44920;BME280;30655;53.094;6.072;2022-09-14T07:08:37;100648.56;;;15.96;84.90
44920;BME280;30655;53.094;6.072;2022-09-14T07:11:07;100643.19;;;16.04;84.89
44920;BME280;30655;53.094;6.072;2022-09-14T07:13:34;100643.28;;;16.13;84.35
44920;BME280;30655;53.094;6.072;2022-09-14T07:16:06;100753.63;;;16.96;84.33
44920;BME280;30655;53.094;6.072;2022-09-14T07:18:38;100629.31;;;16.14;84.10
44920;BME280;30655;53.094;6.072;2022-09-14T07:21:35;100633.88;;;16.19;83.92
44920;BME280;30655;53.094;6.072;2022-09-14T07:24:04;100741.66;;;17.05;83.78
44920;BME280;30655;53.094;6.072;2022-09-14T07:26:41;100784.53;;;17.36;83.84
44920;BME280;30655;53.094;6.072;2022-09-14T07:29:12;100799.16;;;17.31;83.54
44920;BME280;30655;53.094;6.072;2022-09-14T07:31:47;100805.16;;;17.42;83.47
44920;BME280;30655;53.094;6.072;2022-09-14T07:34:19;100753.47;;;17.23;83.13
44920;BME280;30655;53.094;6.072;2022-09-14T07:36:56;100632.09;;;16.45;82.63
44920;BME280;30655;53.094;6.072;2022-09-14T07:39:45;100638.41;;;16.54;82.40
44920;BME280;30655;53.094;6.072;2022-09-14T07:42:19;100794.91;;;17.56;82.42
44920;BME280;30655;53.094;6.072;2022-09-14T07:44:52;100687.47;;;16.99;81.82
44920;BME280;30655;53.094;6.072;2022-09-14T07:47:28;100689.09;;;17.00;81.88
44920;BME280;30655;53.094;6.072;2022-09-14T07:49:58;100639.69;;;16.79;81.85
44920;BME280;30655;53.094;6.072;2022-09-14T07:52:30;100620.22;;;16.63;81.58
44920;BME280;30655;53.094;6.072;2022-09-14T07:55:07;100630.84;;;16.73;81.04
44920;BME280;30655;53.094;6.072;2022-09-14T07:57:42;100699.81;;;17.27;80.93
44920;BME280;30655;53.094;6.072;2022-09-14T08:00:26;100652.75;;;16.91;80.75
44920;BME280;30655;53.094;6.072;2022-09-14T08:02:57;100644.44;;;16.96;79.57
44920;BME280;30655;53.094;6.072;2022-09-14T08:05:30;100732.50;;;17.41;79.34
44920;BME280;30655;53.094;6.072;2022-09-14T08:08:01;100798.47;;;17.96;79.02
44920;BME280;30655;53.094;6.072;2022-09-14T08:10:41;100640.44;;;17.02;78.54
44920;BME280;30655;53.094;6.072;2022-09-14T08:13:29;100599.78;;;16.92;78.85
44920;BME280;30655;53.094;6.072;2022-09-14T08:16:06;100654.50;;;17.26;77.79
44920;BME280;30655;53.094;6.072;2022-09-14T08:18:42;100627.03;;;17.23;77.93
44920;BME280;30655;53.094;6.072;2022-09-14T08:21:14;100754.75;;;18.13;77.95
44920;BME280;30655;53.094;6.072;2022-09-14T08:23:44;100726.72;;;17.99;77.62
44920;BME280;30655;53.094;6.072;2022-09-14T08:26:16;100672.31;;;17.72;77.05
44920;BME280;30655;53.094;6.072;2022-09-14T08:28:44;100645.72;;;17.55;76.55
44920;BME280;30655;53.094;6.072;2022-09-14T08:31:14;100592.84;;;17.42;76.70
44920;BME280;30655;53.094;6.072;2022-09-14T08:33:49;100622.63;;;17.61;75.70
44920;BME280;30655;53.094;6.072;2022-09-14T08:36:24;100644.84;;;17.77;75.34
44920;BME280;30655;53.094;6.072;2022-09-14T08:38:51;100709.84;;;18.23;75.25
44920;BME280;30655;53.094;6.072;2022-09-14T08:41:33;100609.63;;;17.67;74.62
44920;BME280;30655;53.094;6.072;2022-09-14T08:44:05;100739.00;;;18.62;74.53
44920;BME280;30655;53.094;6.072;2022-09-14T08:46:45;100663.00;;;18.24;71.87
44920;BME280;30655;53.094;6.072;2022-09-14T08:49:30;100717.91;;;18.62;70.10
44920;BME280;30655;53.094;6.072;2022-09-14T08:52:01;100635.69;;;18.07;69.46
44920;BME280;30655;53.094;6.072;2022-09-14T08:54:30;100606.38;;;17.99;68.62
44920;BME280;30655;53.094;6.072;2022-09-14T08:57:05;100741.19;;;18.94;67.92
44920;BME280;30655;53.094;6.072;2022-09-14T08:59:47;100727.97;;;18.96;67.41
44920;BME280;30655;53.094;6.072;2022-09-14T09:02:25;100608.28;;;18.24;66.99
44920;BME280;30655;53.094;6.072;2022-09-14T09:05:02;100721.03;;;18.99;66.60
44920;BME280;30655;53.094;6.072;2022-09-14T09:07:41;100619.69;;;18.35;66.35
44920;BME280;30655;53.094;6.072;2022-09-14T09:10:14;100786.03;;;19.36;65.35
44920;BME280;30655;53.094;6.072;2022-09-14T09:12:44;100673.91;;;18.76;65.42
44920;BME280;30655;53.094;6.072;2022-09-14T09:15:20;100740.13;;;19.24;65.05
44920;BME280;30655;53.094;6.072;2022-09-14T09:17:50;100607.75;;;18.48;63.86
44920;BME280;30655;53.094;6.072;2022-09-14T09:20:28;100628.66;;;18.70;63.88
44920;BME280;30655;53.094;6.072;2022-09-14T09:23:18;100766.78;;;19.62;63.24
44920;BME280;30655;53.094;6.072;2022-09-14T09:26:04;100612.22;;;18.70;63.38
44920;BME280;30655;53.094;6.072;2022-09-14T09:28:53;100601.91;;;18.75;63.46
44920;BME280;30655;53.094;6.072;2022-09-14T09:31:29;100612.13;;;18.96;63.37
44920;BME280;30655;53.094;6.072;2022-09-14T09:33:59;100629.06;;;19.27;63.20
44920;BME280;30655;53.094;6.072;2022-09-14T09:36:38;100743.91;;;20.08;61.69
44920;BME280;30655;53.094;6.072;2022-09-14T09:39:10;100704.72;;;19.78;62.08
44920;BME280;30655;53.094;6.072;2022-09-14T09:41:56;100747.47;;;20.29;61.26
44920;BME280;30655;53.094;6.072;2022-09-14T09:44:57;100596.81;;;19.32;56.55
44920;BME280;30655;53.094;6.072;2022-09-14T09:47:39;100714.59;;;20.20;59.50
44920;BME280;30655;53.094;6.072;2022-09-14T09:50:18;100748.09;;;20.35;56.80
44920;BME280;30655;53.094;6.072;2022-09-14T09:52:52;100744.00;;;20.41;58.26
44920;BME280;30655;53.094;6.072;2022-09-14T09:55:35;100589.69;;;19.61;57.66
44920;BME280;30655;53.094;6.072;2022-09-14T09:58:26;100595.63;;;19.84;57.36
44920;BME280;30655;53.094;6.072;2022-09-14T10:01:17;100690.53;;;20.59;57.16
44920;BME280;30655;53.094;6.072;2022-09-14T10:04:16;100607.34;;;20.26;57.19
44920;BME280;30655;53.094;6.072;2022-09-14T10:07:02;100737.16;;;21.13;57.60
44920;BME280;30655;53.094;6.072;2022-09-14T10:09:33;100667.53;;;20.96;57.66
44920;BME280;30655;53.094;6.072;2022-09-14T10:12:12;100726.44;;;21.44;56.97
44920;BME280;30655;53.094;6.072;2022-09-14T10:15:02;100574.63;;;20.41;55.25
44920;BME280;30655;53.094;6.072;2022-09-14T10:17:34;100645.53;;;21.09;56.43
44920;BME280;30655;53.094;6.072;2022-09-14T10:20:18;100568.59;;;20.96;56.85
44920;BME280;30655;53.094;6.072;2022-09-14T10:23:23;100710.19;;;22.27;54.39
44920;BME280;30655;53.094;6.072;2022-09-14T10:29:40;100648.59;;;21.80;49.45
44920;BME280;30655;53.094;6.072;2022-09-14T10:32:23;100659.13;;;21.78;51.70
44920;BME280;30655;53.094;6.072;2022-09-14T10:35:15;100708.31;;;21.92;51.92
44920;BME280;30655;53.094;6.072;2022-09-14T10:38:09;100610.53;;;21.30;52.63
44920;BME280;30655;53.094;6.072;2022-09-14T10:41:07;100666.34;;;21.82;52.79
44920;BME280;30655;53.094;6.072;2022-09-14T10:47:35;100570.91;;;21.31;51.51
44920;BME280;30655;53.094;6.072;2022-09-14T10:53:57;100621.09;;;21.68;50.93
44920;BME280;30655;53.094;6.072;2022-09-14T11:07:30;100693.59;;;22.67;49.41
44920;BME280;30655;53.094;6.072;2022-09-14T11:21:17;100687.38;;;24.54;47.49
44920;BME280;30655;53.094;6.072;2022-09-14T11:52:00;100686.78;;;26.11;41.35
44920;BME280;30655;53.094;6.072;2022-09-14T11:55:19;100615.47;;;25.45;41.34
44920;BME280;30655;53.094;6.072;2022-09-14T12:12:49;100671.38;;;24.63;41.67
44920;BME280;30655;53.094;6.072;2022-09-14T12:19:11;100615.13;;;24.13;43.24
44920;BME280;30655;53.094;6.072;2022-09-14T12:22:43;100593.63;;;23.84;43.05
44920;BME280;30655;53.094;6.072;2022-09-14T12:25:26;100662.78;;;24.26;43.55
44920;BME280;30655;53.094;6.072;2022-09-14T12:52:39;100523.88;;;22.31;45.36
44920;BME280;30655;53.094;6.072;2022-09-14T12:56:01;100603.44;;;22.96;44.54
44920;BME280;30655;53.094;6.072;2022-09-14T12:59:07;100672.88;;;23.48;44.59
44920;BME280;30655;53.094;6.072;2022-09-14T13:09:28;100674.28;;;23.27;44.42
44920;BME280;30655;53.094;6.072;2022-09-14T13:39:44;100649.41;;;22.76;47.42
44920;BME280;30655;53.094;6.072;2022-09-14T13:42:58;100638.69;;;23.22;47.54
44920;BME280;30655;53.094;6.072;2022-09-14T14:03:37;100496.41;;;22.35;45.69
44920;BME280;30655;53.094;6.072;2022-09-14T14:06:22;100529.91;;;22.53;46.28
44920;BME280;30655;53.094;6.072;2022-09-14T14:09:07;100545.84;;;22.75;45.65
44920;BME280;30655;53.094;6.072;2022-09-14T14:11:51;100628.03;;;23.36;45.06
44920;BME280;30655;53.094;6.072;2022-09-14T14:14:38;100523.22;;;22.69;44.81
44920;BME280;30655;53.094;6.072;2022-09-14T14:18:09;100486.88;;;22.64;45.01
44920;BME280;30655;53.094;6.072;2022-09-14T14:20:45;100581.56;;;23.53;44.13
44920;BME280;30655;53.094;6.072;2022-09-14T14:26:47;100546.25;;;24.01;42.37
44920;BME280;30655;53.094;6.072;2022-09-14T14:32:58;100592.69;;;25.02;41.88
44920;BME280;30655;53.094;6.072;2022-09-14T14:35:59;100477.31;;;24.05;40.65
44920;BME280;30655;53.094;6.072;2022-09-14T14:38:40;100565.09;;;24.37;41.57
44920;BME280;30655;53.094;6.072;2022-09-14T14:41:55;100447.75;;;23.63;41.42
44920;BME280;30655;53.094;6.072;2022-09-14T14:44:44;100596.13;;;24.73;42.28
44920;BME280;30655;53.094;6.072;2022-09-14T14:48:01;100516.25;;;24.19;40.49
44920;BME280;30655;53.094;6.072;2022-09-14T15:18:31;100573.34;;;25.28;40.56
44920;BME280;30655;53.094;6.072;2022-09-14T15:21:40;100432.75;;;23.83;41.71
44920;BME280;30655;53.094;6.072;2022-09-14T15:31:26;100479.13;;;23.01;44.50
44920;BME280;30655;53.094;6.072;2022-09-14T15:51:45;100423.94;;;21.72;47.24
44920;BME280;30655;53.094;6.072;2022-09-14T15:54:50;100441.41;;;21.92;47.04
44920;BME280;30655;53.094;6.072;2022-09-14T15:57:47;100449.53;;;21.88;46.87
44920;BME280;30655;53.094;6.072;2022-09-14T16:20:54;100578.75;;;21.97;49.16
44920;BME280;30655;53.094;6.072;2022-09-14T16:23:57;100554.00;;;21.57;50.10
44920;BME280;30655;53.094;6.072;2022-09-14T16:26:37;100487.53;;;21.15;49.49
44920;BME280;30655;53.094;6.072;2022-09-14T16:32:32;100421.56;;;20.38;50.20
44920;BME280;30655;53.094;6.072;2022-09-14T16:35:25;100572.03;;;21.30;50.41
44920;BME280;30655;53.094;6.072;2022-09-14T17:03:44;100529.81;;;20.16;53.73
44920;BME280;30655;53.094;6.072;2022-09-14T17:06:56;100563.38;;;20.34;54.12
44920;BME280;30655;53.094;6.072;2022-09-14T17:13:20;100608.50;;;20.25;56.89
44920;BME280;30655;53.094;6.072;2022-09-14T17:35:11;100461.81;;;18.94;56.97
44920;BME280;30655;53.094;6.072;2022-09-14T17:38:37;100460.09;;;18.89;56.40
44920;BME280;30655;53.094;6.072;2022-09-14T17:42:08;100569.81;;;19.64;55.99
44920;BME280;30655;53.094;6.072;2022-09-14T17:45:01;100610.16;;;19.84;56.15
44920;BME280;30655;53.094;6.072;2022-09-14T17:47:33;100455.00;;;18.79;56.45
44920;BME280;30655;53.094;6.072;2022-09-14T17:50:10;100619.91;;;19.73;56.69
44920;BME280;30655;53.094;6.072;2022-09-14T17:52:37;100481.75;;;18.74;56.86
44920;BME280;30655;53.094;6.072;2022-09-14T17:55:34;100510.06;;;18.86;57.23
44920;BME280;30655;53.094;6.072;2022-09-14T17:58:06;100457.88;;;18.54;57.52
44920;BME280;30655;53.094;6.072;2022-09-14T18:00:39;100617.38;;;19.39;58.82
44920;BME280;30655;53.094;6.072;2022-09-14T18:03:29;100582.72;;;19.13;57.44
44920;BME280;30655;53.094;6.072;2022-09-14T18:06:25;100611.28;;;19.33;57.66
44920;BME280;30655;53.094;6.072;2022-09-14T18:09:42;100479.84;;;18.36;57.74
44920;BME280;30655;53.094;6.072;2022-09-14T18:26:26;100467.16;;;17.77;58.54
44920;BME280;30655;53.094;6.072;2022-09-14T18:29:15;100462.66;;;17.63;58.65
44920;BME280;30655;53.094;6.072;2022-09-14T18:35:52;100563.75;;;18.15;59.50
44920;BME280;30655;53.094;6.072;2022-09-14T18:39:11;100542.25;;;17.88;59.59
44920;BME280;30655;53.094;6.072;2022-09-14T18:45:55;100568.28;;;17.77;59.82
44920;BME280;30655;53.094;6.072;2022-09-14T18:52:13;100490.28;;;17.02;60.50
44920;BME280;30655;53.094;6.072;2022-09-14T18:55:50;100659.00;;;17.96;61.00
44920;BME280;30655;53.094;6.072;2022-09-14T19:01:35;100625.13;;;17.49;61.79
44920;BME280;30655;53.094;6.072;2022-09-14T19:04:17;100600.66;;;17.18;62.27
44920;BME280;30655;53.094;6.072;2022-09-14T19:07:31;100626.22;;;17.31;62.42
44920;BME280;30655;53.094;6.072;2022-09-14T19:10:14;100556.03;;;16.74;62.92
44920;BME280;30655;53.094;6.072;2022-09-14T19:12:52;100548.75;;;16.61;63.33
44920;BME280;30655;53.094;6.072;2022-09-14T19:16:15;100663.19;;;17.28;63.52
44920;BME280;30655;53.094;6.072;2022-09-14T19:18:45;100546.19;;;16.34;63.94
44920;BME280;30655;53.094;6.072;2022-09-14T19:21:51;100467.66;;;15.83;64.27
44920;BME280;30655;53.094;6.072;2022-09-14T19:24:58;100679.34;;;17.07;64.39
44920;BME280;30655;53.094;6.072;2022-09-14T19:27:55;100607.47;;;16.59;64.47
44920;BME280;30655;53.094;6.072;2022-09-14T19:30:59;100675.41;;;16.91;65.29
44920;BME280;30655;53.094;6.072;2022-09-14T19:34:10;100603.44;;;16.34;65.06
44920;BME280;30655;53.094;6.072;2022-09-14T19:36:51;100527.16;;;15.67;65.46
44920;BME280;30655;53.094;6.072;2022-09-14T19:39:40;100682.84;;;16.68;65.47
44920;BME280;30655;53.094;6.072;2022-09-14T19:43:22;100492.94;;;15.39;66.05
44920;BME280;30655;53.094;6.072;2022-09-14T19:49:12;100521.06;;;15.48;66.32
44920;BME280;30655;53.094;6.072;2022-09-14T19:52:03;100555.16;;;15.81;66.31
44920;BME280;30655;53.094;6.072;2022-09-14T19:55:11;100510.63;;;15.50;66.85
44920;BME280;30655;53.094;6.072;2022-09-14T20:01:21;100507.66;;;15.52;67.05
44920;BME280;30655;53.094;6.072;2022-09-14T20:08:02;100671.59;;;16.48;67.85
44920;BME280;30655;53.094;6.072;2022-09-14T20:10:40;100518.44;;;15.43;67.54
44920;BME280;30655;53.094;6.072;2022-09-14T20:13:28;100475.66;;;15.21;67.76
44920;BME280;30655;53.094;6.072;2022-09-14T20:19:46;100488.97;;;15.23;68.25
44920;BME280;30655;53.094;6.072;2022-09-14T20:23:07;100672.28;;;16.31;68.46
44920;BME280;30655;53.094;6.072;2022-09-14T20:29:35;100536.09;;;15.45;69.00
44920;BME280;30655;53.094;6.072;2022-09-14T20:32:10;100642.16;;;16.14;69.22
44920;BME280;30655;53.094;6.072;2022-09-14T20:35:01;100659.56;;;16.26;69.16
44920;BME280;30655;53.094;6.072;2022-09-14T20:37:28;100614.63;;;16.02;69.19
44920;BME280;30655;53.094;6.072;2022-09-14T20:40:12;100581.41;;;15.77;69.16
44920;BME280;30655;53.094;6.072;2022-09-14T20:42:39;100642.66;;;16.16;69.28
44920;BME280;30655;53.094;6.072;2022-09-14T20:45:09;100483.75;;;15.13;69.19
44920;BME280;30655;53.094;6.072;2022-09-14T20:47:41;100612.16;;;15.91;69.36
44920;BME280;30655;53.094;6.072;2022-09-14T20:50:13;100532.78;;;15.35;69.50
44920;BME280;30655;53.094;6.072;2022-09-14T20:52:49;100652.19;;;16.05;69.86
44920;BME280;30655;53.094;6.072;2022-09-14T20:55:49;100638.66;;;16.00;69.74
44920;BME280;30655;53.094;6.072;2022-09-14T20:58:24;100587.34;;;15.57;69.96
44920;BME280;30655;53.094;6.072;2022-09-14T21:00:58;100638.31;;;15.92;70.10
44920;BME280;30655;53.094;6.072;2022-09-14T21:03:32;100487.78;;;15.01;70.11
44920;BME280;30655;53.094;6.072;2022-09-14T21:06:05;100558.69;;;15.46;70.20
44920;BME280;30655;53.094;6.072;2022-09-14T21:08:35;100571.19;;;15.47;70.18
44920;BME280;30655;53.094;6.072;2022-09-14T21:11:05;100655.03;;;16.00;70.32
44920;BME280;30655;53.094;6.072;2022-09-14T21:13:36;100510.69;;;15.00;70.39
44920;BME280;30655;53.094;6.072;2022-09-14T21:16:08;100602.19;;;15.51;70.80
44920;BME280;30655;53.094;6.072;2022-09-14T21:18:36;100585.25;;;15.54;70.74
44920;BME280;30655;53.094;6.072;2022-09-14T21:21:07;100518.25;;;15.03;70.74
44920;BME280;30655;53.094;6.072;2022-09-14T21:23:36;100564.97;;;15.33;71.13
44920;BME280;30655;53.094;6.072;2022-09-14T21:26:09;100510.31;;;14.93;71.05
44920;BME280;30655;53.094;6.072;2022-09-14T21:28:38;100562.75;;;15.21;71.18
44920;BME280;30655;53.094;6.072;2022-09-14T21:31:07;100482.09;;;14.62;71.33
44920;BME280;30655;53.094;6.072;2022-09-14T21:33:37;100524.50;;;14.90;71.62
44920;BME280;30655;53.094;6.072;2022-09-14T21:36:07;100517.88;;;14.83;71.41
44920;BME280;30655;53.094;6.072;2022-09-14T21:38:36;100596.84;;;15.32;71.98
44920;BME280;30655;53.094;6.072;2022-09-14T21:41:14;100662.19;;;15.73;71.90
44920;BME280;30655;53.094;6.072;2022-09-14T21:43:43;100658.94;;;15.71;72.06
44920;BME280;30655;53.094;6.072;2022-09-14T21:46:10;100454.22;;;14.43;72.13
44920;BME280;30655;53.094;6.072;2022-09-14T21:48:38;100564.72;;;15.07;72.35
44920;BME280;30655;53.094;6.072;2022-09-14T21:51:12;100630.00;;;15.48;72.53
44920;BME280;30655;53.094;6.072;2022-09-14T21:53:43;100672.97;;;15.65;72.54
44920;BME280;30655;53.094;6.072;2022-09-14T21:56:12;100680.16;;;15.61;73.01
44920;BME280;30655;53.094;6.072;2022-09-14T21:58:39;100566.63;;;14.93;73.07
44920;BME280;30655;53.094;6.072;2022-09-14T22:01:07;100483.13;;;14.39;73.19
44920;BME280;30655;53.094;6.072;2022-09-14T22:03:37;100492.66;;;14.36;73.45
44920;BME280;30655;53.094;6.072;2022-09-14T22:06:08;100590.94;;;15.03;73.85
44920;BME280;30655;53.094;6.072;2022-09-14T22:08:36;100598.88;;;14.99;73.84
44920;BME280;30655;53.094;6.072;2022-09-14T22:11:10;100486.81;;;14.29;73.81
44920;BME280;30655;53.094;6.072;2022-09-14T22:13:39;100631.66;;;15.22;74.25
44920;BME280;30655;53.094;6.072;2022-09-14T22:16:07;100603.94;;;14.92;74.73
44920;BME280;30655;53.094;6.072;2022-09-14T22:18:35;100545.56;;;14.57;74.82
44920;BME280;30655;53.094;6.072;2022-09-14T22:21:03;100592.34;;;14.87;74.81
44920;BME280;30655;53.094;6.072;2022-09-14T22:23:30;100659.88;;;15.26;75.28
44920;BME280;30655;53.094;6.072;2022-09-14T22:26:07;100554.44;;;14.63;75.42